createdAt,value
2023-08-17T00:02:07.855Z,5.25
2023-08-17T00:04:35.318Z,5.18
2023-08-17T00:07:02.776Z,5.18
2023-08-17T00:09:31.488Z,5.60
2023-08-17T00:11:58.973Z,5.30
2023-08-17T00:14:26.682Z,5.30
2023-08-17T00:16:54.161Z,5.65
2023-08-17T00:19:21.632Z,5.25
2023-08-17T00:21:49.266Z,5.38
2023-08-17T00:24:16.673Z,5.53
2023-08-17T00:26:45.488Z,5.15
2023-08-17T00:29:12.980Z,5.15
2023-08-17T00:31:39.469Z,5.35
2023-08-17T00:34:06.911Z,5.53
2023-08-17T00:36:34.423Z,5.47
2023-08-17T00:39:01.856Z,5.80
2023-08-17T00:41:29.635Z,5.75
2023-08-17T00:43:58.390Z,5.88
2023-08-17T00:46:27.879Z,6.60
2023-08-17T00:48:56.012Z,6.68
2023-08-17T00:51:24.573Z,6.65
2023-08-17T00:53:52.299Z,8.00
2023-08-17T00:56:19.819Z,7.87
2023-08-17T00:58:47.275Z,7.57
2023-08-17T01:01:16.091Z,7.90
2023-08-17T01:03:46.152Z,8.17
2023-08-17T01:06:14.967Z,7.97
2023-08-17T01:08:44.162Z,7.50
2023-08-17T01:11:15.364Z,7.50
2023-08-17T01:13:48.801Z,8.10
2023-08-17T01:16:20.865Z,7.60
2023-08-17T01:18:51.082Z,8.03
2023-08-17T01:21:19.672Z,7.60
2023-08-17T01:23:49.087Z,7.13
2023-08-17T01:26:17.889Z,7.18
2023-08-17T01:28:46.160Z,8.15
2023-08-17T01:31:16.014Z,7.50
2023-08-17T01:33:46.348Z,8.32
2023-08-17T01:36:19.055Z,8.65
2023-08-17T01:38:48.186Z,8.83
2023-08-17T01:41:16.537Z,8.80
2023-08-17T01:43:46.767Z,8.63
2023-08-17T01:46:15.399Z,8.05
2023-08-17T01:48:43.009Z,7.50
2023-08-17T01:51:10.719Z,7.20
2023-08-17T01:53:38.183Z,6.83
2023-08-17T01:56:07.206Z,6.47
2023-08-17T01:58:34.710Z,6.82
2023-08-17T02:01:04.364Z,6.63
2023-08-17T02:03:32.820Z,6.00
2023-08-17T02:06:00.420Z,7.10
2023-08-17T02:08:30.073Z,7.30
2023-08-17T02:10:57.554Z,7.00
2023-08-17T02:13:28.316Z,7.80
2023-08-17T02:16:01.833Z,8.00
2023-08-17T02:18:31.968Z,7.10
2023-08-17T02:20:59.436Z,7.53
2023-08-17T02:23:26.895Z,7.50
2023-08-17T02:25:54.305Z,7.00
2023-08-17T02:28:22.816Z,7.20
2023-08-17T02:30:56.846Z,6.87
2023-08-17T02:33:25.348Z,6.77
2023-08-17T02:35:53.319Z,6.55
2023-08-17T02:38:20.971Z,7.10
2023-08-17T02:40:50.431Z,7.00
2023-08-17T02:43:17.885Z,7.87
2023-08-17T02:45:45.553Z,6.40
2023-08-17T02:48:14.337Z,6.67
2023-08-17T02:50:42.325Z,6.60
2023-08-17T02:53:10.016Z,6.67
2023-08-17T02:55:37.834Z,7.50
2023-08-17T02:58:05.517Z,6.83
2023-08-17T03:00:32.973Z,7.87
2023-08-17T03:03:00.520Z,6.57
2023-08-17T03:05:29.367Z,6.87
2023-08-17T03:07:56.815Z,6.83
2023-08-17T03:10:26.031Z,7.28
2023-08-17T03:12:53.493Z,6.83
2023-08-17T03:15:21.172Z,6.77
2023-08-17T03:17:48.768Z,7.13
2023-08-17T03:20:16.384Z,6.80
2023-08-17T03:22:45.242Z,7.03
2023-08-17T03:25:12.774Z,6.67
2023-08-17T03:27:42.074Z,7.20
2023-08-17T03:30:09.713Z,6.97
2023-08-17T03:32:38.001Z,7.47
2023-08-17T03:35:05.966Z,7.07
2023-08-17T03:37:33.527Z,7.13
2023-08-17T03:40:02.845Z,8.03
2023-08-17T03:42:32.624Z,6.70
2023-08-17T03:45:00.148Z,7.23
2023-08-17T03:47:28.459Z,6.50
2023-08-17T03:49:56.190Z,6.87
2023-08-17T03:52:23.673Z,7.40
2023-08-17T03:54:51.155Z,6.87
2023-08-17T03:57:19.903Z,7.10
2023-08-17T03:59:47.367Z,7.07
2023-08-17T04:02:14.833Z,6.37
2023-08-17T04:04:42.431Z,7.27
2023-08-17T04:07:09.880Z,6.77
2023-08-17T04:09:37.427Z,7.27
2023-08-17T04:12:07.003Z,7.33
2023-08-17T04:14:37.898Z,6.90
2023-08-17T04:17:05.449Z,6.63
2023-08-17T04:19:33.223Z,6.73
2023-08-17T04:22:00.730Z,6.60
2023-08-17T04:24:28.300Z,6.50
2023-08-17T04:26:56.015Z,7.87
2023-08-17T04:29:23.505Z,6.70
2023-08-17T04:31:52.391Z,6.10
2023-08-17T04:34:20.100Z,6.33
2023-08-17T04:36:47.660Z,6.63
2023-08-17T04:39:15.354Z,6.60
2023-08-17T04:41:44.276Z,6.00
2023-08-17T04:44:15.323Z,5.80
2023-08-17T04:46:42.877Z,6.67
2023-08-17T04:49:12.065Z,6.43
2023-08-17T04:51:39.664Z,6.20
2023-08-17T04:54:07.134Z,6.90
2023-08-17T04:56:34.689Z,6.40
2023-08-17T04:59:02.197Z,6.40
2023-08-17T05:01:29.812Z,6.50
2023-08-17T05:03:57.296Z,6.80
2023-08-17T05:06:26.343Z,6.63
2023-08-17T05:08:53.912Z,6.23
2023-08-17T05:11:21.411Z,6.07
2023-08-17T05:13:49.447Z,6.70
2023-08-17T05:16:17.025Z,6.93
2023-08-17T05:18:45.987Z,6.20
2023-08-17T05:21:16.247Z,6.57
2023-08-17T05:23:44.968Z,6.20
2023-08-17T05:26:13.648Z,6.80
2023-08-17T05:28:43.398Z,6.47
2023-08-17T05:31:10.981Z,6.50
2023-08-17T05:33:42.388Z,6.33
2023-08-17T05:36:09.910Z,6.77
2023-08-17T05:38:37.421Z,6.50
2023-08-17T05:41:07.594Z,7.13
2023-08-17T05:43:35.018Z,6.60
2023-08-17T05:46:03.678Z,7.03
2023-08-17T05:48:31.119Z,6.20
2023-08-17T05:50:58.661Z,6.53
2023-08-17T05:53:26.100Z,6.40
2023-08-17T05:55:53.498Z,6.00
2023-08-17T05:58:22.303Z,6.40
2023-08-17T06:00:50.763Z,6.10
2023-08-17T06:03:18.395Z,6.40
2023-08-17T06:05:45.975Z,6.07
2023-08-17T06:08:13.404Z,6.40
2023-08-17T06:10:40.870Z,6.50
2023-08-17T06:13:08.297Z,6.07
2023-08-17T06:15:37.099Z,6.00
2023-08-17T06:18:04.825Z,6.33
2023-08-17T06:20:32.298Z,6.32
2023-08-17T06:23:01.104Z,6.35
2023-08-17T06:25:29.028Z,5.80
2023-08-17T06:27:56.768Z,10.25
2023-08-17T06:30:24.448Z,10.75
2023-08-17T06:32:53.777Z,11.95
2023-08-17T06:35:21.397Z,13.07
2023-08-17T06:37:48.883Z,11.48
2023-08-17T06:40:16.360Z,13.23
2023-08-17T06:42:43.846Z,11.87
2023-08-17T06:45:11.768Z,11.57
2023-08-17T06:47:39.258Z,11.93
2023-08-17T06:50:09.662Z,11.20
2023-08-17T06:52:40.316Z,11.43
2023-08-17T06:55:08.023Z,11.82
2023-08-17T06:57:35.436Z,10.63
2023-08-17T07:00:02.912Z,10.13
2023-08-17T07:02:42.546Z,10.02
2023-08-17T07:05:19.305Z,11.25
2023-08-17T07:07:46.765Z,9.52
2023-08-17T07:10:14.286Z,9.23
2023-08-17T07:12:41.756Z,9.98
2023-08-17T07:15:09.762Z,8.93
2023-08-17T07:17:37.576Z,9.05
2023-08-17T07:22:37.306Z,9.70
2023-08-17T07:25:05.499Z,8.18
2023-08-17T07:27:32.935Z,7.18
2023-08-17T07:30:00.381Z,6.70
2023-08-17T07:32:28.171Z,5.57
2023-08-17T07:34:55.578Z,5.75
2023-08-17T07:37:23.142Z,5.57
2023-08-17T07:39:51.969Z,5.65
2023-08-17T07:42:19.415Z,6.15
2023-08-17T07:44:46.977Z,5.35
2023-08-17T07:47:14.424Z,4.80
2023-08-17T07:49:41.927Z,5.15
2023-08-17T07:52:09.379Z,5.72
2023-08-17T07:54:36.840Z,5.85
2023-08-17T07:57:05.812Z,5.60
2023-08-17T07:59:33.252Z,5.55
2023-08-17T08:02:00.671Z,6.10
2023-08-17T08:04:28.372Z,5.93
2023-08-17T08:06:55.860Z,6.05
2023-08-17T08:09:23.378Z,6.20
2023-08-17T08:11:50.905Z,5.53
2023-08-17T08:14:19.891Z,5.20
2023-08-17T08:16:48.170Z,5.20
2023-08-17T08:19:15.596Z,4.90
2023-08-17T08:21:43.033Z,5.32
2023-08-17T08:24:22.308Z,5.30
2023-08-17T08:26:57.873Z,5.35
2023-08-17T08:29:26.663Z,4.97
2023-08-17T08:31:54.540Z,4.78
2023-08-17T08:34:21.941Z,4.35
2023-08-17T08:36:49.844Z,4.53
2023-08-17T08:39:17.297Z,5.13
2023-08-17T08:41:44.833Z,4.90
2023-08-17T08:44:12.387Z,4.68
2023-08-17T08:46:41.937Z,4.50
2023-08-17T08:49:12.095Z,4.60
2023-08-17T08:51:43.789Z,4.53
2023-08-17T08:54:13.784Z,4.90
2023-08-17T08:56:47.845Z,4.32
2023-08-17T08:59:16.205Z,4.22
2023-08-17T09:01:45.056Z,4.55
2023-08-17T09:04:12.700Z,4.25
2023-08-17T09:06:40.294Z,4.05
2023-08-17T09:09:07.965Z,4.18
2023-08-17T09:11:35.430Z,3.83
2023-08-17T09:14:03.995Z,4.20
2023-08-17T09:16:31.495Z,3.83
2023-08-17T09:19:00.792Z,3.78
2023-08-17T09:21:28.180Z,4.00
2023-08-17T09:26:26.445Z,3.95
2023-08-17T09:28:55.249Z,3.92
2023-08-17T09:31:23.198Z,3.70
2023-08-17T09:33:51.525Z,3.70
2023-08-17T09:36:23.767Z,4.00
2023-08-17T09:38:52.249Z,4.15
2023-08-17T09:41:20.075Z,4.00
2023-08-17T09:43:47.866Z,4.13
2023-08-17T09:46:16.474Z,4.53
2023-08-17T09:48:45.295Z,4.68
2023-08-17T09:51:12.701Z,4.22
2023-08-17T09:53:41.438Z,4.10
2023-08-17T09:58:44.316Z,4.20
2023-08-17T10:01:13.159Z,4.72
2023-08-17T10:03:41.857Z,4.63
2023-08-17T10:06:11.620Z,4.35
2023-08-17T10:08:43.896Z,4.35
2023-08-17T10:11:11.867Z,4.45
2023-08-17T10:13:41.895Z,4.32
2023-08-17T10:16:11.573Z,3.85
2023-08-17T10:18:43.161Z,3.90
2023-08-17T10:21:12.307Z,4.15
2023-08-17T10:23:43.276Z,3.92
2023-08-17T10:26:11.293Z,4.13
2023-08-17T10:28:39.873Z,3.83
2023-08-17T10:31:11.480Z,4.00
2023-08-17T10:33:39.486Z,3.83
2023-08-17T10:36:07.516Z,3.53
2023-08-17T10:38:34.972Z,3.85
2023-08-17T10:41:20.408Z,3.75
2023-08-17T10:43:56.580Z,3.85
2023-08-17T10:46:24.047Z,3.70
2023-08-17T10:48:53.250Z,4.18
2023-08-17T10:51:25.882Z,3.88
2023-08-17T10:53:54.567Z,4.70
2023-08-17T10:56:22.190Z,4.18
2023-08-17T10:58:53.127Z,4.32
2023-08-17T11:01:34.181Z,4.50
2023-08-17T11:04:14.808Z,4.82
2023-08-17T11:06:43.977Z,4.45
2023-08-17T11:09:12.783Z,4.97
2023-08-17T11:11:40.356Z,5.13
2023-08-17T11:14:08.030Z,5.00
2023-08-17T11:16:36.953Z,5.15
2023-08-17T11:19:04.660Z,5.03
2023-08-17T11:21:32.227Z,4.57
2023-08-17T11:23:59.886Z,4.50
2023-08-17T11:26:28.534Z,5.00
2023-08-17T11:28:56.017Z,5.57
2023-08-17T11:31:23.488Z,4.72
2023-08-17T11:33:55.663Z,4.75
2023-08-17T11:36:24.690Z,4.75
2023-08-17T11:38:52.174Z,4.97
2023-08-17T11:41:19.741Z,5.25
2023-08-17T11:43:47.737Z,4.70
2023-08-17T11:46:16.275Z,5.22
2023-08-17T11:48:43.811Z,4.82
2023-08-17T11:51:13.029Z,5.28
2023-08-17T11:53:41.360Z,4.80
2023-08-17T11:56:11.203Z,4.78
2023-08-17T11:58:42.110Z,5.10
2023-08-17T12:01:11.122Z,4.70
2023-08-17T12:03:38.837Z,5.00
2023-08-17T12:06:06.654Z,4.85
2023-08-17T12:08:35.657Z,5.30
2023-08-17T12:11:04.037Z,4.70
2023-08-17T12:13:32.518Z,4.95
2023-08-17T12:16:00.261Z,4.88
2023-08-17T12:18:28.169Z,4.43
2023-08-17T12:20:55.706Z,4.85
2023-08-17T12:23:23.180Z,4.90
2023-08-17T12:25:56.041Z,4.38
2023-08-17T12:28:24.066Z,4.57
2023-08-17T12:30:59.219Z,4.05
2023-08-17T12:33:26.735Z,4.25
2023-08-17T12:35:54.583Z,4.15
2023-08-17T12:38:22.015Z,4.70
2023-08-17T12:40:49.461Z,4.25
2023-08-17T12:43:18.286Z,4.20
2023-08-17T12:45:45.793Z,4.10
2023-08-17T12:48:13.551Z,4.40
2023-08-17T12:50:44.307Z,4.10
2023-08-17T12:53:12.370Z,4.03
2023-08-17T12:55:40.033Z,4.20
2023-08-17T12:58:09.483Z,4.35
2023-08-17T13:00:38.348Z,4.28
2023-08-17T13:03:06.213Z,4.13
2023-08-17T13:05:34.328Z,3.75
2023-08-17T13:08:01.919Z,3.63
2023-08-17T13:10:29.630Z,3.92
2023-08-17T13:13:00.102Z,4.10
2023-08-17T13:15:28.125Z,3.97
2023-08-17T13:17:56.989Z,4.40
2023-08-17T13:20:24.437Z,3.88
2023-08-17T13:22:51.908Z,4.00
2023-08-17T13:25:19.349Z,4.45
2023-08-17T13:27:46.818Z,4.03
2023-08-17T13:30:14.425Z,4.20
2023-08-17T13:32:44.185Z,4.40
2023-08-17T13:35:14.537Z,4.20
2023-08-17T13:37:42.643Z,4.28
2023-08-17T13:40:11.153Z,4.70
2023-08-17T13:42:38.709Z,4.45
2023-08-17T13:45:06.615Z,4.60
2023-08-17T13:47:34.229Z,5.15
2023-08-17T13:50:01.850Z,4.90
2023-08-17T13:52:30.758Z,4.70
2023-08-17T13:54:58.267Z,5.25
2023-08-17T13:57:25.805Z,4.95
2023-08-17T13:59:53.336Z,5.18
2023-08-17T14:02:21.210Z,4.90
2023-08-17T14:04:48.674Z,4.82
2023-08-17T14:07:16.172Z,4.80
2023-08-17T14:09:51.563Z,4.72
2023-08-17T14:12:29.664Z,4.63
2023-08-17T14:14:57.098Z,4.53
2023-08-17T14:17:24.615Z,4.88
2023-08-17T14:19:52.072Z,3.95
2023-08-17T14:22:19.536Z,4.82
2023-08-17T14:24:48.324Z,4.20
2023-08-17T14:27:15.807Z,4.35
2023-08-17T14:29:47.909Z,4.47
2023-08-17T14:32:15.849Z,3.88
2023-08-17T14:34:43.245Z,3.95
2023-08-17T14:37:10.726Z,4.10
2023-08-17T14:39:38.317Z,4.25
2023-08-17T14:42:07.421Z,4.57
2023-08-17T14:44:34.987Z,4.00
2023-08-17T14:47:02.785Z,4.10
2023-08-17T14:49:31.093Z,3.65
2023-08-17T14:51:58.529Z,4.55
2023-08-17T14:54:26.374Z,4.20
2023-08-17T14:56:57.101Z,4.05
2023-08-17T14:59:26.182Z,4.28
2023-08-17T15:01:56.763Z,4.15
2023-08-17T15:04:26.352Z,4.50
2023-08-17T15:06:54.063Z,4.20
2023-08-17T15:09:21.575Z,3.75
2023-08-17T15:11:49.396Z,4.03
2023-08-17T15:14:16.900Z,3.40
2023-08-17T15:16:45.668Z,3.63
2023-08-17T15:19:14.176Z,3.33
2023-08-17T15:21:43.090Z,3.33
2023-08-17T15:24:10.654Z,3.85
2023-08-17T15:26:38.153Z,3.25
2023-08-17T15:29:05.846Z,3.10
2023-08-17T15:31:33.329Z,2.97
2023-08-17T15:34:02.146Z,2.92
2023-08-17T15:36:29.626Z,2.78
2023-08-17T15:38:57.090Z,2.90
2023-08-17T15:41:24.528Z,3.30
2023-08-17T15:43:51.985Z,2.90
2023-08-17T15:46:19.498Z,2.88
2023-08-17T15:48:46.983Z,2.58
2023-08-17T15:51:15.729Z,2.80
2023-08-17T15:53:44.446Z,3.05
2023-08-17T15:56:12.177Z,3.00
2023-08-17T15:58:39.585Z,2.72
2023-08-17T16:01:07.113Z,3.17
2023-08-17T16:03:34.620Z,2.67
2023-08-17T16:06:02.106Z,2.53
2023-08-17T16:08:47.253Z,2.85
2023-08-17T16:11:15.364Z,2.35
2023-08-17T16:16:13.307Z,3.25
2023-08-17T16:18:40.838Z,2.25
2023-08-17T16:21:14.173Z,2.33
2023-08-17T16:23:44.318Z,2.63
2023-08-17T16:26:11.920Z,2.30
2023-08-17T16:28:39.363Z,1.95
2023-08-17T16:31:07.142Z,2.03
2023-08-17T16:33:34.738Z,1.77
2023-08-17T16:36:02.253Z,1.75
2023-08-17T16:38:29.742Z,1.95
2023-08-17T16:40:58.556Z,2.00
2023-08-17T16:43:25.972Z,2.00
2023-08-17T16:45:53.545Z,1.70
2023-08-17T16:48:24.708Z,1.48
2023-08-17T16:50:52.553Z,1.52
2023-08-17T16:53:20.314Z,1.65
2023-08-17T16:55:54.476Z,1.38
2023-08-17T16:58:24.049Z,1.50
2023-08-17T17:00:51.486Z,1.67
2023-08-17T17:03:18.958Z,1.63
2023-08-17T17:05:46.387Z,1.52
2023-08-17T17:08:13.821Z,1.60
2023-08-17T17:10:41.281Z,1.90
2023-08-17T17:13:08.782Z,1.67
2023-08-17T17:15:37.614Z,1.60
2023-08-17T17:18:05.170Z,1.60
2023-08-17T17:20:32.922Z,1.50
2023-08-17T17:23:00.416Z,1.48
2023-08-17T17:25:27.876Z,1.73
2023-08-17T17:27:55.438Z,1.80
2023-08-17T17:30:22.881Z,1.40
2023-08-17T17:32:51.734Z,1.50
2023-08-17T17:35:19.190Z,1.30
2023-08-17T17:37:46.661Z,1.48
2023-08-17T17:40:14.094Z,1.40
2023-08-17T17:42:41.666Z,1.50
2023-08-17T17:45:09.374Z,1.20
2023-08-17T17:47:36.897Z,1.45
2023-08-17T17:50:06.233Z,1.67
2023-08-17T17:52:33.702Z,2.40
2023-08-17T17:55:01.291Z,1.45
2023-08-17T17:57:28.928Z,1.50
2023-08-17T17:59:56.891Z,1.45
2023-08-17T18:02:26.143Z,1.40
2023-08-17T18:04:53.723Z,1.50
2023-08-17T18:07:22.527Z,1.30
2023-08-17T18:09:50.046Z,1.48
2023-08-17T18:12:17.538Z,1.60
2023-08-17T18:14:45.816Z,1.42
2023-08-17T18:17:13.240Z,1.65
2023-08-17T18:19:40.678Z,1.70
2023-08-17T18:22:08.401Z,1.67
2023-08-17T18:24:37.419Z,1.50
2023-08-17T18:27:05.007Z,1.60
2023-08-17T18:29:32.529Z,1.40
2023-08-17T18:32:00.027Z,1.70
2023-08-17T18:34:27.866Z,1.80
2023-08-17T18:36:55.333Z,1.60
2023-08-17T18:39:23.168Z,1.60
2023-08-17T18:41:51.917Z,1.40
2023-08-17T18:44:19.361Z,1.80
2023-08-17T18:46:46.856Z,1.55
2023-08-17T18:49:14.348Z,1.60
2023-08-17T18:51:41.781Z,1.88
2023-08-17T18:54:09.291Z,1.90
2023-08-17T18:56:36.787Z,1.60
2023-08-17T18:59:05.720Z,2.13
2023-08-17T19:01:33.152Z,2.22
2023-08-17T19:04:00.728Z,2.45
2023-08-17T19:06:28.192Z,2.28
2023-08-17T19:08:55.608Z,2.40
2023-08-17T19:11:23.046Z,2.53
2023-08-17T19:13:50.443Z,2.20
2023-08-17T19:16:19.295Z,2.50
2023-08-17T19:18:46.765Z,2.40
2023-08-17T19:21:14.201Z,2.40
2023-08-17T19:23:41.605Z,2.35
2023-08-17T19:26:10.353Z,2.53
2023-08-17T19:28:37.783Z,2.63
2023-08-17T19:31:05.344Z,2.58
2023-08-17T19:33:34.551Z,2.80
2023-08-17T19:36:02.026Z,3.28
2023-08-17T19:38:29.530Z,2.22
2023-08-17T19:40:56.951Z,2.42
2023-08-17T19:43:24.402Z,2.72
2023-08-17T19:45:51.959Z,2.70
2023-08-17T19:48:19.424Z,2.50
2023-08-17T19:50:48.789Z,2.58
2023-08-17T19:53:16.252Z,2.40
2023-08-17T19:55:43.712Z,2.70
2023-08-17T19:58:11.173Z,2.90
2023-08-17T20:00:38.644Z,2.88
2023-08-17T20:03:06.830Z,2.60
2023-08-17T20:05:34.392Z,2.65
2023-08-17T20:08:03.533Z,2.83
2023-08-17T20:10:31.462Z,2.50
2023-08-17T20:12:58.927Z,2.67
2023-08-17T20:15:27.150Z,2.40
2023-08-17T20:17:54.612Z,2.88
2023-08-17T20:20:22.022Z,2.58
2023-08-17T20:22:49.412Z,2.42
2023-08-17T20:25:18.708Z,2.70
2023-08-17T20:27:46.156Z,2.58
2023-08-17T20:30:14.048Z,2.72
2023-08-17T20:32:41.569Z,2.53
2023-08-17T20:35:09.540Z,3.08
2023-08-17T20:37:37.054Z,2.88
2023-08-17T20:40:05.606Z,2.83
2023-08-17T20:42:34.455Z,3.10
2023-08-17T20:45:01.839Z,2.80
2023-08-17T20:47:29.607Z,2.60
2023-08-17T20:49:59.487Z,2.72
2023-08-17T20:52:27.058Z,2.50
2023-08-17T20:54:54.488Z,2.45
2023-08-17T20:57:22.157Z,3.10
2023-08-17T20:59:50.904Z,2.60
2023-08-17T21:02:18.855Z,2.60
2023-08-17T21:04:46.281Z,2.40
2023-08-17T21:07:13.732Z,2.75
2023-08-17T21:09:41.270Z,2.42
2023-08-17T21:12:09.056Z,2.70
2023-08-17T21:14:36.462Z,2.80
2023-08-17T21:17:05.301Z,2.70
2023-08-17T21:19:32.754Z,2.60
2023-08-17T21:22:00.255Z,2.60
2023-08-17T21:24:27.893Z,2.50
2023-08-17T21:26:55.740Z,2.85
2023-08-17T21:29:23.242Z,2.83
2023-08-17T21:31:50.688Z,2.63
2023-08-17T21:34:20.770Z,3.10
2023-08-17T21:36:48.246Z,2.33
2023-08-17T21:39:15.891Z,2.55
2023-08-17T21:41:43.358Z,2.80
2023-08-17T21:44:10.891Z,2.50
2023-08-17T21:46:40.087Z,2.88
2023-08-17T21:49:07.517Z,2.60
2023-08-17T21:51:36.376Z,2.92
2023-08-17T21:54:03.938Z,2.70
2023-08-17T21:56:31.366Z,3.28
2023-08-17T21:58:58.804Z,2.60
2023-08-17T22:01:26.291Z,2.35
2023-08-17T22:03:53.864Z,2.63
2023-08-17T22:06:21.488Z,2.53
2023-08-17T22:08:50.347Z,2.63
2023-08-17T22:11:17.885Z,2.80
2023-08-17T22:13:45.400Z,2.90
2023-08-17T22:16:12.897Z,2.80
2023-08-17T22:18:40.665Z,2.60
2023-08-17T22:21:08.180Z,2.78
2023-08-17T22:23:35.646Z,2.85
2023-08-17T22:26:04.503Z,2.72
2023-08-17T22:28:32.001Z,2.70
2023-08-17T22:31:09.732Z,2.60
2023-08-17T22:33:37.329Z,2.65
2023-08-17T22:36:05.038Z,2.67
2023-08-17T22:38:32.487Z,3.05
2023-08-17T22:40:59.898Z,3.07
2023-08-17T22:43:28.636Z,2.45
2023-08-17T22:45:56.103Z,2.60
2023-08-17T22:48:23.572Z,2.60
2023-08-17T22:50:51.052Z,2.97
2023-08-17T22:53:18.537Z,2.88
2023-08-17T22:55:45.965Z,2.90
2023-08-17T22:58:13.365Z,3.72
2023-08-17T23:00:42.128Z,2.80
2023-08-17T23:03:09.680Z,2.90
2023-08-17T23:05:37.280Z,2.43
2023-08-17T23:08:05.581Z,2.90
2023-08-17T23:10:33.157Z,2.90
2023-08-17T23:13:00.636Z,2.57
2023-08-17T23:15:28.684Z,2.63
2023-08-17T23:17:57.611Z,2.63
2023-08-17T23:20:25.035Z,2.93
2023-08-17T23:22:52.444Z,2.77
2023-08-17T23:25:19.894Z,2.87
2023-08-17T23:27:47.470Z,2.80
2023-08-17T23:30:14.994Z,3.30
2023-08-17T23:32:42.613Z,2.43
2023-08-17T23:35:11.807Z,2.60
2023-08-17T23:37:39.323Z,2.90
2023-08-17T23:40:08.230Z,2.90
2023-08-17T23:42:35.686Z,2.70
2023-08-17T23:45:03.239Z,2.97
2023-08-17T23:47:30.986Z,2.80
2023-08-17T23:49:58.731Z,2.83
2023-08-17T23:52:27.498Z,3.30
2023-08-17T23:54:54.964Z,3.00
2023-08-17T23:57:22.489Z,2.97
2023-08-17T23:59:50.678Z,3.10
